Home > Products > Valid Products > TAF

000
FTUS43 KMKX 250107 AAA
TAFMKE
TAF AMD
KMKE 250107Z 2501/2606 19005KT 5SM HZ SCT040 BKN070
      TEMPO 2502/2503 -SHRA
     FM250300 21004KT 5SM BR OVC040
     FM250500 23006KT 5SM BR BKN025
     FM251100 28006KT P6SM SCT030
     FM251700 30013G21KT P6SM SKC
     FM252300 30010KT P6SM SKC
     FM260500 30007KT P6SM SKC=



000
FTUS43 KMKX 250103 AAA
TAFMSN
TAF AMD
KMSN 250103Z 2501/2524 19003KT P6SM SCT030 OVC035
     FM250200 21005KT P6SM BKN025
      TEMPO 2502/2503 SCT025 OVC035
     FM250400 24004KT 5SM BR BKN025
     FM250800 27004KT 6SM BR SCT025
     FM251100 30006KT P6SM FEW250
     FM251700 30012G20KT P6SM SKC
     FM252300 29009KT P6SM SKC=



000
FTUS43 KMKX 242320
TAFMSN
TAF
KMSN 242320Z 2500/2524 19006KT P6SM SCT030 BKN050
     FM250100 21005KT P6SM BKN025
     FM250400 24004KT 5SM BR BKN025
     FM250800 27004KT 6SM BR SCT025
     FM251100 30006KT P6SM FEW250
     FM251700 30012G20KT P6SM SKC
     FM252300 29009KT P6SM SKC=



000
FTUS43 KMKX 242320
TAFMKE
TAF
KMKE 242320Z 2500/2606 21005KT P6SM SCT090 BKN250
     FM250500 23006KT 6SM BR BKN025
     FM251100 28006KT P6SM SCT030
     FM251700 30013G21KT P6SM SKC
     FM252300 30010KT P6SM SKC
     FM260500 30007KT P6SM SKC=



000
FTUS43 KMKX 242003 AAC
TAFMKE
TAF AMD
KMKE 242003Z 2420/2524 23008KT P6SM BKN250
     FM242200 20006KT P6SM SCT020
     FM250200 21006KT P6SM BKN020
     FM250400 21005KT P6SM BKN030
     FM250700 25005KT P6SM BKN015
     FM251200 28007KT P6SM SCT150
     FM251500 29012KT P6SM FEW250
     FM251800 29013G23KT P6SM FEW250=



000
FTUS43 KMKX 241918 AAC
TAFMSN
TAF AMD
KMSN 241918Z 2419/2518 20008KT P6SM SCT011 SCT090 BKN250
     FM242300 19006KT P6SM BKN140
     FM250100 19005KT P6SM OVC015
     FM250300 22005KT 3SM BR BKN020
     FM250800 25005KT 4SM BR BKN025
     FM251000 28005KT P6SM SCT200
     FM251600 30008KT P6SM FEW250=



000
FTUS43 KMKX 241842 AAB
TAFMSN
TAF AMD
KMSN 241842Z 2419/2518 19006KT P6SM BKN010
     FM242000 20008KT P6SM SCT008 BKN020
     FM242300 19006KT P6SM BKN140
     FM250100 19005KT P6SM OVC015
     FM250300 22005KT 3SM BR BKN020
     FM250800 25005KT 4SM BR BKN025
     FM251000 28005KT P6SM SCT200
     FM251600 30008KT P6SM FEW250=



000
FTUS43 KMKX 241838 AAB
TAFMKE
TAF AMD
KMKE 241838Z 2419/2524 26004KT P6SM SCT010 BKN250
     FM242200 20006KT P6SM SCT020
     FM250200 21006KT P6SM BKN020
     FM250400 21005KT P6SM BKN030
     FM250700 25005KT P6SM BKN015
     FM251200 28007KT P6SM SCT150
     FM251500 29012KT P6SM FEW250
     FM251800 29013G23KT P6SM FEW250=



000
FTUS43 KMKX 241828 AAA
TAFMKE
TAF AMD
KMKE 241828Z 2418/2524 24008KT P6SM BKN010
     FM241900 21008KT P6SM SCT015
     FM242200 20006KT P6SM SCT020
     FM250200 21006KT P6SM BKN020
     FM250400 21005KT P6SM BKN030
     FM250700 25005KT P6SM BKN015
     FM251200 28007KT P6SM SCT150
     FM251500 29012KT P6SM FEW250
     FM251800 29013G23KT P6SM FEW250=



000
FTUS43 KMKX 241800 AAA
TAFMSN
TAF AMD
KMSN 241800Z 2418/2518 20008KT P6SM OVC006
     FM242000 20008KT P6SM SCT008 BKN020
     FM242300 19006KT P6SM BKN140
     FM250100 19005KT P6SM OVC015
     FM250300 22005KT 3SM BR BKN020
     FM250800 25005KT 4SM BR BKN025
     FM251000 28005KT P6SM SCT200
     FM251600 30008KT P6SM FEW250=



000
FTUS43 KMKX 241720
TAFMKE
TAF
KMKE 241720Z 2418/2524 22007KT P6SM OVC008
     FM242000 20008KT P6SM SCT008 BKN015
     FM242200 20006KT P6SM SCT020
     FM250200 21006KT P6SM BKN020
     FM250400 21005KT P6SM BKN030
     FM250700 25005KT P6SM BKN015
     FM251200 28007KT P6SM SCT150
     FM251500 29012KT P6SM FEW250
     FM251800 29013G23KT P6SM FEW250=



000
FTUS43 KMKX 241720
TAFMSN
TAF
KMSN 241720Z 2418/2518 20007KT 4SM BR OVC005
     FM242000 20008KT P6SM SCT008 BKN020
     FM242300 19006KT P6SM BKN140
     FM250100 19005KT P6SM OVC015
     FM250300 22005KT 3SM BR BKN020
     FM250800 25005KT 4SM BR BKN025
     FM251000 28005KT P6SM SCT200
     FM251600 30008KT P6SM FEW250=



000
FTUS43 KMKX 241605 AAD
TAFMKE
TAF AMD
KMKE 241605Z 2416/2518 25006KT 6SM BR OVC004
     FM242000 21007KT P6SM OVC006
     FM242100 20007KT P6SM OVC008
     FM242300 20007KT P6SM SCT010 BKN250
     FM250600 26005KT P6SM BKN035
     FM251500 29009KT P6SM SCT035=



000
FTUS43 KMKX 241602 AAA
TAFMSN
TAF AMD
KMSN 241602Z 2416/2512 21005KT 1 1/2SM BR OVC002
     FM241800 20006KT 2SM BR OVC004
     FM241900 20008KT 4SM BR SCT008 BKN012
     FM242100 20008KT P6SM BKN250
     FM250400 23005KT P6SM BKN030
     FM251000 26004KT P6SM SCT030
     FM251100 29004KT P6SM SCT200=



000
FTUS43 KMKX 241459 AAC
TAFMKE
TAF AMD
KMKE 241459Z 2415/2518 27005KT 6SM BR OVC005
     FM241600 26004KT P6SM BKN008
     FM241800 21007KT P6SM BKN018
     FM241900 20007KT P6SM BKN250
     FM250600 26005KT P6SM BKN035
     FM251500 29009KT P6SM SCT035=



000
FTUS43 KMKX 241410 AAB
TAFMKE
TAF AMD
KMKE 241410Z 2414/2518 29005KT 6SM BR OVC006
     FM241600 26004KT P6SM BKN008
     FM241800 21007KT P6SM BKN018
     FM241900 20007KT P6SM BKN250
     FM250600 26005KT P6SM BKN035
     FM251500 29009KT P6SM SCT035=



000
FTUS43 KMKX 241410 AAB
TAFMKE
TAF AMD
KMKE 241410Z 2414/2518 29005KT 6SM BR OVC006
     FM241600 26004KT P6SM BKN008
     FM241800 21007KT P6SM BKN018
     FM241900 20007KT P6SM BKN250
     FM250600 26005KT P6SM BKN035
     FM251500 29009KT P6SM SCT035=



000
FTUS43 KMKX 241237 AAA
TAFMKE
TAF AMD
KMKE 241237Z 2413/2518 27004KT 2SM BR OVC004
     FM241500 26005KT 5SM BR OVC006
     FM241600 26004KT P6SM BKN008
     FM241800 21007KT P6SM BKN018
     FM241900 20007KT P6SM BKN250
     FM250600 26005KT P6SM BKN035
     FM251500 29009KT P6SM SCT035=



000
FTUS43 KMKX 241120
TAFMSN
TAF
KMSN 241120Z 2412/2512 00000KT 1SM BR OVC003
     FM241400 VRB03KT 1 1/2SM BR OVC005
     FM241600 20006KT 6SM BR OVC006
     FM241900 20008KT P6SM BKN015
     FM242100 20008KT P6SM BKN250
     FM250400 23005KT P6SM BKN030
     FM251000 26004KT P6SM SCT030
     FM251100 29004KT P6SM SCT200=



000
FTUS43 KMKX 241120
TAFMKE
TAF
KMKE 241120Z 2412/2518 28004KT 5SM BR OVC005
     FM241600 26004KT P6SM BKN008
     FM241800 21007KT P6SM BKN018
     FM241900 20007KT P6SM BKN250
     FM250600 26005KT P6SM BKN035
     FM251500 29009KT P6SM SCT035=



000
FTUS43 KMKX 240907 AAB
TAFMKE
TAF AMD
KMKE 240907Z 2409/2512 28005KT 5SM BR OVC005
     FM241500 VRB03KT 4SM BR SCT008 BKN025
     FM241800 25007KT P6SM SCT030 SCT080
     FM250200 19005KT P6SM SCT040 BKN080
     FM250600 21004KT 6SM BR SCT010=



000
FTUS43 KMKX 240806 AAA
TAFMKE
TAF AMD
KMKE 240806Z 2408/2512 24005KT 6SM BR BKN008 OVC012
     FM241000 VRB03KT 3SM BR OVC007
     FM241500 VRB03KT 4SM BR SCT008 BKN025
     FM241800 25007KT P6SM SCT030 SCT080
     FM250200 19005KT P6SM SCT040 BKN080
     FM250600 21004KT 6SM BR SCT010=



000
FTUS43 KMKX 240806 AAA
TAFMKE
TAF AMD
KMKE 240806Z 2408/2512 24005KT 6SM BR BKN008 OVC012
     FM241000 VRB03KT 3SM BR OVC007
     FM241500 VRB03KT 4SM BR SCT008 BKN025
     FM241800 25007KT P6SM SCT030 SCT080
     FM250200 19005KT P6SM SCT040 BKN080
     FM250600 21004KT 6SM BR SCT010=



000
FTUS43 KMKX 240520
TAFMSN
TAF
KMSN 240520Z 2406/2506 00000KT 4SM BR OVC005
      TEMPO 2406/2409 2SM BR
     FM240900 00000KT 1SM BR OVC003
     FM241100 00000KT 1/2SM FG OVC002
     FM241400 VRB03KT 2SM BR BKN005
     FM241600 20005KT P6SM SCT010 BKN200
     FM242200 20008KT P6SM BKN060
     FM250300 21005KT 6SM BR SCT015=



000
FTUS43 KMKX 240520
TAFMKE
TAF
KMKE 240520Z 2406/2512 19004KT 6SM BR OVC021
     FM240800 20004KT 5SM BR OVC018
     FM241000 VRB03KT 3SM BR SCT005 OVC011
     FM241400 VRB03KT 4SM BR SCT008 BKN025
     FM241500 25007KT P6SM SCT030 SCT080
     FM250200 19005KT P6SM SCT040 BKN080
     FM250600 21004KT 6SM BR SCT010=



000
FTUS43 KMKX 240249 AAA
TAFMKE
TAF AMD
KMKE 240249Z 2403/2506 19004KT P6SM OVC028
     FM240600 22004KT 6SM BR OVC018
     FM241000 VRB03KT 3SM BR OVC005
     FM241400 VRB03KT 3SM BR SCT035
     FM241500 25004KT P6SM SCT080
     FM250200 19004KT P6SM SCT040 BKN080=



000
FTUS43 KMKX 240249 AAA
TAFMKE
TAF AMD
KMKE 240249Z 2403/2506 19004KT P6SM OVC028
     FM240600 22004KT 6SM BR OVC018
     FM241000 VRB03KT 3SM BR OVC005
     FM241400 VRB03KT 3SM BR SCT035
     FM241500 25004KT P6SM SCT080
     FM250200 19004KT P6SM SCT040 BKN080=



000
FTUS43 KMKX 240110 AAA
TAFMSN
TAF AMD
KMSN 240110Z 2401/2424 21003KT 6SM BR OVC008
     FM240300 00000KT 5SM BR OVC006
     FM240600 00000KT 3SM BR OVC004
      TEMPO 2406/2409 3/4SM BR
     FM240900 00000KT 1/2SM FG OVC003
     FM241400 VRB03KT 2SM BR SCT003
     FM241500 20004KT P6SM SCT130
     FM242200 20008KT P6SM BKN060=



000
FTUS43 KMKX 232328
TAFMSN
TAF
KMSN 232328Z 2400/2424 18003KT P6SM SCT011 OVC017
     FM240300 00000KT 6SM BR OVC009
     FM240600 00000KT 3SM BR OVC005
      TEMPO 2406/2409 3/4SM BR
     FM240900 00000KT 1/2SM FG OVC003
     FM241400 VRB03KT 2SM BR SCT003
     FM241500 20004KT P6SM SCT130
     FM242200 20008KT P6SM BKN060=



000
FTUS43 KMKX 232328
TAFMKE
TAF
KMKE 232328Z 2400/2506 17005KT P6SM -SHRA SCT025 OVC060
     FM240100 19004KT P6SM OVC040
     FM240300 20004KT 6SM BR OVC030
     FM240600 22004KT 6SM BR OVC018
     FM241000 VRB03KT 3SM BR OVC005
     FM241400 VRB03KT 3SM BR SCT035
     FM241500 25004KT P6SM SCT080
     FM250200 19004KT P6SM SCT040 BKN080=



000
FTUS43 KMKX 232108 AAB
TAFMKE
TAF AMD
KMKE 232108Z 2321/2424 16008KT 6SM -SHRA BR OVC035
     FM240100 21006KT P6SM OVC035
     FM240400 28004KT 3SM BR OVC005
     FM240800 28004KT 1SM BR BKN005
     FM241500 25004KT P6SM SCT005
     FM242000 19006KT P6SM SCT025=



000
FTUS43 KMKX 232107 AAC
TAFMSN
TAF AMD
KMSN 232107Z 2321/2418 20005KT P6SM OVC025
     FM240000 VRB03KT 5SM BR OVC015
     FM240900 VRB03KT 3/4SM BR BKN005
     FM241500 20004KT P6SM SCT005=



000
FTUS43 KMKX 232017 AAB
TAFMSN
TAF AMD
KMSN 232017Z 2320/2418 23005KT 6SM -SHRA OVC035
     FM232100 20007KT P6SM OVC035
     FM240000 VRB03KT 5SM BR OVC015
     FM240900 VRB03KT 3/4SM BR BKN005
     FM241500 20004KT P6SM SCT005=



000
FTUS43 KMKX 232014 AAA
TAFMKE
TAF AMD
KMKE 232014Z 2320/2424 15011KT P6SM OVC150
     FM232100 16010KT 6SM -SHRA BR OVC035
     FM240100 21006KT P6SM OVC035
     FM240400 28004KT 3SM BR OVC005
     FM240800 28004KT 1SM BR BKN005
     FM241500 25004KT P6SM SCT005
     FM242000 19006KT P6SM SCT025=



000
FTUS43 KMKX 231938 AAA
TAFMSN
TAF AMD
KMSN 231938Z 2320/2418 19007KT 6SM -SHRA OVC035
     FM232100 20007KT P6SM VCSH OVC035
     FM240000 20005KT P6SM OVC030
     FM240200 VRB03KT 5SM BR OVC020
     FM240900 VRB03KT 4SM BR OVC005
     FM241500 20004KT P6SM SCT005=



000
FTUS43 KMKX 231938 AAA
TAFMSN
TAF AMD
KMSN 231938Z 2320/2418 19007KT 6SM -SHRA OVC035
     FM232100 20007KT P6SM VCSH OVC035
     FM240000 20005KT P6SM OVC030
     FM240200 VRB03KT 5SM BR OVC020
     FM240900 VRB03KT 4SM BR OVC005
     FM241500 20004KT P6SM SCT005=



000
FTUS43 KMKX 231741
TAFMSN
TAF
KMSN 231741Z 2318/2418 19009KT 5SM -SHRA OVC035
     FM232100 20007KT P6SM VCSH OVC035
     FM240000 20005KT P6SM OVC030
     FM240200 VRB03KT 5SM BR OVC020
     FM240900 VRB03KT 4SM BR OVC005
     FM241500 20004KT P6SM SCT005=



000
FTUS43 KMKX 231741
TAFMKE
TAF
KMKE 231741Z 2318/2424 22009KT P6SM OVC200
     FM232000 18010KT 5SM -SHRA BR OVC035
     FM240100 21006KT P6SM VCSH OVC035
     FM240400 28004KT 3SM BR OVC005
     FM241500 25004KT P6SM SCT005
     FM242000 19006KT P6SM SCT025=



000
FTUS43 KMKX 231741
TAFMSN
TAF
KMSN 231741Z 2318/2418 19009KT 5SM -SHRA OVC035
     FM232100 20007KT P6SM VCSH OVC035
     FM240000 20005KT P6SM OVC030
     FM240200 VRB03KT 5SM BR OVC020
     FM240900 VRB03KT 4SM BR OVC005
     FM241500 20004KT P6SM SCT005=



000
FTUS43 KMKX 231741
TAFMKE
TAF
KMKE 231741Z 2318/2424 22009KT P6SM OVC200
     FM232000 18010KT 5SM -SHRA BR OVC035
     FM240100 21006KT P6SM VCSH OVC035
     FM240400 28004KT 3SM BR OVC005
     FM241500 25004KT P6SM SCT005
     FM242000 19006KT P6SM SCT025=



000
FTUS43 KMKX 231528 AAC
TAFMSN
TAF AMD
KMSN 231528Z 2315/2412 18010KT P6SM BKN060
     FM231700 18010KT 5SM -SHRA BR OVC035
     FM232000 20009KT P6SM VCSH SCT025 OVC035
     FM232300 21005KT P6SM OVC025
     FM240100 VRB03KT P6SM BKN025
     FM240500 VRB03KT 5SM BR SCT025=



000
FTUS43 KMKX 231413 AAB
TAFMSN
TAF AMD
KMSN 231413Z 2314/2412 18010KT P6SM BKN060
     FM231800 18010KT P6SM -SHRA OVC045
     FM232000 20009KT P6SM VCSH SCT025 OVC035
     FM232300 21005KT P6SM OVC025
     FM240100 VRB03KT P6SM BKN025
     FM240500 VRB03KT 5SM BR SCT025=



000
FTUS43 KMKX 231413 AAB
TAFMSN
TAF AMD
KMSN 231413Z 2314/2412 18010KT P6SM BKN060
     FM231800 18010KT P6SM -SHRA OVC045
     FM232000 20009KT P6SM VCSH SCT025 OVC035
     FM232300 21005KT P6SM OVC025
     FM240100 VRB03KT P6SM BKN025
     FM240500 VRB03KT 5SM BR SCT025=



000
FTUS43 KMKX 231412 AAB
TAFMKE
TAF AMD
KMKE 231412Z 2314/2418 18006KT P6SM BKN150
     FM232000 18009KT P6SM -SHRA OVC045
     FM240000 20009KT P6SM VCSH SCT025 OVC035
     FM240300 21005KT P6SM OVC030
     FM240900 VRB03KT 5SM BR SCT035
     FM241400 17006KT P6SM SCT040=



000
FTUS43 KMKX 231412 AAB
TAFMKE
TAF AMD
KMKE 231412Z 2314/2418 18006KT P6SM BKN150
     FM232000 18009KT P6SM -SHRA OVC045
     FM240000 20009KT P6SM VCSH SCT025 OVC035
     FM240300 21005KT P6SM OVC030
     FM240900 VRB03KT 5SM BR SCT035
     FM241400 17006KT P6SM SCT040=



000
FTUS43 KMKX 231337 AAA
TAFMSN
TAF AMD
KMSN 231337Z 2314/2412 17008KT P6SM BKN080
     FM231600 18009KT P6SM -SHRA OVC045
     FM232000 20009KT P6SM VCSH SCT025 OVC035
     FM232300 21005KT P6SM OVC025
     FM240100 VRB03KT P6SM BKN025
     FM240500 VRB03KT 5SM BR SCT025=



000
FTUS43 KMKX 231334 AAA
TAFMKE
TAF AMD
KMKE 231334Z 2314/2418 22005KT P6SM BKN250
     FM231600 17006KT P6SM BKN090
     FM232000 18009KT P6SM -SHRA OVC045
     FM240000 20009KT P6SM VCSH SCT025 OVC035
     FM240300 21005KT P6SM OVC030
     FM240900 VRB03KT 5SM BR SCT035
     FM241400 17006KT P6SM SCT040=



000
FTUS43 KMKX 231120
TAFMKE
TAF
KMKE 231120Z 2312/2418 19007KT P6SM BKN250
     FM231600 17006KT P6SM BKN090
     FM232000 18009KT P6SM -SHRA OVC045
     FM240000 20009KT P6SM VCSH SCT025 OVC035
     FM240300 21005KT P6SM OVC030
     FM240500 VRB03KT P6SM BKN030
     FM240900 VRB03KT 5SM BR SCT035
     FM241400 17006KT P6SM SCT040=



000
FTUS43 KMKX 231120
TAFMSN
TAF
KMSN 231120Z 2312/2412 17006KT P6SM BKN080
     FM231600 18009KT P6SM -SHRA OVC045
     FM232000 20009KT P6SM VCSH SCT025 OVC035
     FM232300 21005KT P6SM OVC025
     FM240100 VRB03KT P6SM BKN025
     FM240500 VRB03KT 5SM BR SCT025=



000
FTUS43 KMKX 230908 AAA
TAFMKE
TAF AMD
KMKE 230908Z 2309/2412 15003KT P6SM FEW250
     FM231500 18008KT P6SM SCT050 BKN100
     FM231900 18010KT P6SM VCSH SCT035 BKN060
      TEMPO 2319/2321 -SHRA BKN035
     FM232200 20007KT 6SM -SHRA SCT025 OVC030
     FM240000 21006KT P6SM OVC025
     FM240600 25005KT 5SM BR SCT008 SCT025=



000
FTUS43 KMKX 230520
TAFMKE
TAF
KMKE 230520Z 2306/2412 15003KT P6SM FEW250
     FM231500 18008KT P6SM SCT050 BKN100
     FM231900 18010KT P6SM VCSH SCT035 BKN060
      TEMPO 2319/2321 -SHRA BKN035
     FM232200 20007KT 6SM -SHRA SCT025 OVC030
     FM240000 21006KT P6SM OVC025
     FM240600 25005KT 5SM BR SCT008 SCT025=



000
FTUS43 KMKX 230520
TAFMSN
TAF
KMSN 230520Z 2306/2406 15006KT P6SM BKN250
      TEMPO 2310/2312 SCT050 BKN080
     FM231200 18007KT P6SM SCT050 BKN080
     FM231400 18008KT P6SM VCSH BKN050
      TEMPO 2314/2317 -SHRA BKN035
     FM231700 19009KT P6SM -SHRA SCT025 OVC035
     FM232000 20008KT P6SM OVC030
     FM240100 21005KT 5SM BR OVC012=



000
FTUS43 KMKX 230253 AAA
TAFMKE
TAF AMD
KMKE 230253Z 2303/2406 14005KT P6SM FEW250
     FM230900 16004KT P6SM FEW250
     FM231500 18008KT P6SM FEW100 SCT250
     FM232000 18010KT P6SM VCSH SCT040 BKN080
      TEMPO 2320/2322 -SHRA BKN040
     FM232200 20007KT 6SM -SHRA SCT025 OVC035
     FM240000 21006KT P6SM OVC025
     FM240400 25005KT P6SM BKN040=



000
FTUS43 KMKX 222332
TAFMSN
TAF
KMSN 222332Z 2300/2324 15005KT P6SM FEW250
     FM231200 18007KT P6SM SCT060 BKN100
     FM231400 18008KT P6SM VCSH BKN050
      TEMPO 2314/2317 -SHRA BKN035
     FM231700 19009KT P6SM -SHRA SCT025 OVC035
     FM232000 20008KT P6SM OVC030
     FM232300 21005KT P6SM OVC015=



000
FTUS43 KMKX 222332
TAFMKE
TAF
KMKE 222332Z 2300/2406 14005KT P6SM SKC
     FM230900 19004KT P6SM FEW250
     FM231500 18008KT P6SM FEW100 SCT250
     FM232000 18010KT P6SM VCSH SCT040 BKN080
      TEMPO 2320/2322 -SHRA BKN040
     FM232200 20007KT 6SM -SHRA SCT025 OVC035
     FM240000 21006KT P6SM OVC025
     FM240400 25005KT P6SM BKN040=



000
FTUS43 KMKX 222034 AAB
TAFMKE
TAF AMD
KMKE 222034Z 2221/2324 12009KT P6SM SKC
     FM230000 13005KT P6SM SKC
     FM231500 19008KT P6SM SCT250
     FM232100 20008KT 4SM -SHRA BR OVC030=



000
FTUS43 KMKX 222034 AAB
TAFMKE
TAF AMD
KMKE 222034Z 2221/2324 12009KT P6SM SKC
     FM230000 13005KT P6SM SKC
     FM231500 19008KT P6SM SCT250
     FM232100 20008KT 4SM -SHRA BR OVC030=



000
FTUS43 KMKX 222033 AAB
TAFMSN
TAF AMD
KMSN 222033Z 2221/2318 18009KT P6SM SKC
     FM230000 15005KT P6SM SKC
     FM231300 18008KT P6SM BKN100
     FM231600 18008KT 5SM -SHRA BR OVC030=



000
FTUS43 KMKX 222033 AAB
TAFMSN
TAF AMD
KMSN 222033Z 2221/2318 18009KT P6SM SKC
     FM230000 15005KT P6SM SKC
     FM231300 18008KT P6SM BKN100
     FM231600 18008KT 5SM -SHRA BR OVC030=



000
FTUS43 KMKX 221921 AAA
TAFMSN
TAF AMD
KMSN 221921Z 2219/2318 18007KT P6SM SKC
     FM230000 15005KT P6SM SKC
     FM231300 18008KT P6SM BKN100
     FM231600 18008KT 5SM -SHRA BR OVC030=



000
FTUS43 KMKX 221920 AAA
TAFMKE
TAF AMD
KMKE 221920Z 2219/2324 12011KT P6SM SCT025
     FM230000 13005KT P6SM SKC
     FM231500 19008KT P6SM SCT250
     FM232100 20008KT 4SM -SHRA BR OVC030=



000
FTUS43 KMKX 221737
TAFMSN
TAF
KMSN 221737Z 2218/2318 17007KT P6SM SKC
     FM230000 15005KT P6SM SKC
     FM231300 18008KT P6SM BKN100
     FM231600 18008KT 5SM -SHRA BR OVC030=



000
FTUS43 KMKX 221737
TAFMKE
TAF
KMKE 221737Z 2218/2324 11007KT P6SM BKN025
     FM222100 13007KT P6SM SCT025
     FM230000 13005KT P6SM SKC
     FM231500 19008KT P6SM SCT250
     FM232100 20008KT 4SM -SHRA BR OVC030=



000
FTUS43 KMKX 221737
TAFMSN
TAF
KMSN 221737Z 2218/2318 17007KT P6SM SKC
     FM230000 15005KT P6SM SKC
     FM231300 18008KT P6SM BKN100
     FM231600 18008KT 5SM -SHRA BR OVC030=



000
FTUS43 KMKX 221737
TAFMKE
TAF
KMKE 221737Z 2218/2324 11007KT P6SM BKN025
     FM222100 13007KT P6SM SCT025
     FM230000 13005KT P6SM SKC
     FM231500 19008KT P6SM SCT250
     FM232100 20008KT 4SM -SHRA BR OVC030=



000
FTUS43 KMKX 221433 AAB
TAFMSN
TAF AMD
KMSN 221433Z 2215/2312 VRB03KT 6SM BR SCT020
     FM221800 15009KT P6SM SKC
     FM230000 15004KT P6SM FEW250=



000
FTUS43 KMKX 221431 AAA
TAFMKE
TAF AMD
KMKE 221431Z 2215/2318 VRB03KT P6SM BKN020
      TEMPO 2215/2218 SCT020
     FM221800 14005KT P6SM FEW020
     FM230100 15004KT P6SM FEW250
     FM231500 20009KT P6SM BKN060=



000
FTUS43 KMKX 221315 AAA
TAFMSN
TAF AMD
KMSN 221315Z 2213/2312 VRB03KT P6SM SCT020
     FM221900 15009KT P6SM SKC
     FM230000 15004KT P6SM FEW250=



000
FTUS43 KMKX 221122
TAFMKE
TAF
KMKE 221122Z 2212/2318 30004KT P6SM SCT025
     FM221500 13007KT P6SM FEW030
     FM230100 15004KT P6SM FEW250
     FM231500 20009KT P6SM BKN060=



000
FTUS43 KMKX 221122
TAFMSN
TAF
KMSN 221122Z 2212/2312 VRB03KT 3SM BR BKN018
      TEMPO 2212/2213 1SM BR SCT002 SCT018
     FM221300 13005KT P6SM SKC
     FM221900 15009KT P6SM SKC
     FM230000 15004KT P6SM FEW250=



000
FTUS43 KMKX 221100 AAB
TAFMSN
TAF AMD
KMSN 221100Z 2211/2306 VRB03KT 3SM BR SCT002 SCT018
      TEMPO 2211/2213 3/4SM BR BKN018
     FM221300 VRB03KT P6SM SKC
     FM221900 16007KT P6SM FEW250=



000
FTUS43 KMKX 221100 AAB
TAFMSN
TAF AMD
KMSN 221100Z 2211/2306 VRB03KT 3SM BR SCT002 SCT018
      TEMPO 2211/2213 3/4SM BR BKN018
     FM221300 VRB03KT P6SM SKC
     FM221900 16007KT P6SM FEW250=



000
FTUS43 KMKX 221022 AAA
TAFMSN
TAF AMD
KMSN 221022Z 2210/2306 VRB03KT 3SM BR SCT002
      TEMPO 2210/2213 3/4SM BR VV002
     FM221300 VRB03KT P6SM SKC
     FM221900 16007KT P6SM FEW250=



000
FTUS43 KMKX 220851 AAA
TAFMKE
TAF AMD
KMKE 220851Z 2209/2312 31005KT P6SM SKC
     FM221600 13006KT P6SM FEW030
     FM230100 14005KT P6SM FEW250=



000
FTUS43 KMKX 220520
TAFMSN
TAF
KMSN 220520Z 2206/2306 VRB03KT 5SM BR SKC
     FM220900 00000KT 3SM BR SKC
     FM221300 VRB03KT P6SM SKC
     FM221900 16007KT P6SM FEW250=



000
FTUS43 KMKX 220520
TAFMKE
TAF
KMKE 220520Z 2206/2312 05006KT P6SM SKC
     FM221600 13006KT P6SM FEW030
     FM230100 14005KT P6SM FEW250=



000
FTUS43 KMKX 220520
TAFMSN
TAF
KMSN 220520Z 2206/2306 VRB03KT 5SM BR SKC
     FM220900 00000KT 3SM BR SKC
     FM221300 VRB03KT P6SM SKC
     FM221900 16007KT P6SM FEW250=



000
FTUS43 KMKX 220520
TAFMKE
TAF
KMKE 220520Z 2206/2312 05006KT P6SM SKC
     FM221600 13006KT P6SM FEW030
     FM230100 14005KT P6SM FEW250=



000
FTUS43 KMKX 220300 AAA
TAFMKE
TAF AMD
KMKE 220300Z 2203/2306 03008KT P6SM SKC
     FM220700 06005KT P6SM SKC
     FM221500 12004KT P6SM FEW250
     FM230300 00000KT P6SM SKC=



    US Dept of Commerce
    National Oceanic and Atmospheric Administration
    National Weather Service
    1325 East West Highway
    Silver Spring, MD 20910
    Page Author: NWS Internet Services Team
Disclaimer
Information Quality
Credits
Glossary
Privacy Policy
Freedom of Information Act (FOIA)
About Us
Career Opportunities